createdAt,value
2018-11-28T00:00:32.254Z,0.60
2018-11-28T00:03:04.006Z,0.50
2018-11-28T00:05:34.024Z,0.50
2018-11-28T00:08:09.565Z,0.50
2018-11-28T00:10:39.180Z,0.40
2018-11-28T00:13:08.714Z,0.40
2018-11-28T00:15:38.502Z,0.40
2018-11-28T00:18:08.525Z,0.40
2018-11-28T00:20:38.450Z,0.30
2018-11-28T00:25:35.341Z,0.30
2018-11-28T00:30:35.952Z,0.30
2018-11-28T00:35:34.064Z,0.30
2018-11-28T00:38:03.945Z,0.30
2018-11-28T00:40:33.657Z,0.30
2018-11-28T00:43:03.491Z,0.30
2018-11-28T00:45:33.148Z,0.30
2018-11-28T00:48:02.933Z,0.30
2018-11-28T00:50:33.300Z,0.30
2018-11-28T00:53:02.933Z,0.30
2018-11-28T00:58:00.601Z,0.30
2018-11-28T01:00:30.675Z,0.20
2018-11-28T01:05:29.038Z,0.20
2018-11-28T01:07:58.663Z,0.20
2018-11-28T01:10:28.318Z,0.20
2018-11-28T01:12:57.986Z,0.20
2018-11-28T01:15:27.953Z,0.20
2018-11-28T01:17:57.567Z,0.20
2018-11-28T01:20:27.665Z,0.20
2018-11-28T01:22:57.218Z,0.20
2018-11-28T01:25:26.794Z,0.20
2018-11-28T01:30:24.779Z,0.30
2018-11-28T01:32:54.401Z,0.20
2018-11-28T01:35:24.252Z,0.30
2018-11-28T01:37:53.925Z,0.20
2018-11-28T01:40:24.348Z,0.20
2018-11-28T01:45:24.553Z,0.20
2018-11-28T01:47:54.080Z,0.10
2018-11-28T01:50:23.796Z,0.10
2018-11-28T01:52:53.642Z,0.10
2018-11-28T01:55:23.388Z,0.10
2018-11-28T02:00:21.939Z,0.10
2018-11-28T02:02:56.509Z,0.10
2018-11-28T02:05:26.261Z,0.10
2018-11-28T02:10:24.866Z,0.10
2018-11-28T02:15:26.312Z,0.10
2018-11-28T02:17:56.677Z,0.10
2018-11-28T02:20:26.191Z,0.10
2018-11-28T02:22:56.113Z,0.10
2018-11-28T02:25:25.853Z,0.10
2018-11-28T02:27:55.613Z,0.10
2018-11-28T02:30:25.132Z,0.10
2018-11-28T02:32:55.212Z,0.10
2018-11-28T02:35:24.955Z,0.10
2018-11-28T02:40:24.463Z,0.20
2018-11-28T02:45:22.130Z,0.20
2018-11-28T02:47:52.439Z,0.20
2018-11-28T02:50:21.944Z,0.20
2018-11-28T02:52:51.692Z,0.20
2018-11-28T02:55:21.417Z,0.20
2018-11-28T03:00:21.227Z,0.20
2018-11-28T03:02:50.730Z,0.20
2018-11-28T03:07:47.707Z,0.20
2018-11-28T03:12:46.309Z,0.20
2018-11-28T03:15:18.971Z,0.20
2018-11-28T03:20:20.051Z,0.20
2018-11-28T03:22:49.633Z,0.20
2018-11-28T03:25:19.459Z,0.20
2018-11-28T03:27:49.214Z,0.20
2018-11-28T03:30:18.907Z,0.20
2018-11-28T03:32:48.432Z,0.20
2018-11-28T03:35:18.086Z,0.20
2018-11-28T03:37:47.701Z,0.20
2018-11-28T03:40:17.472Z,0.20
2018-11-28T03:45:17.973Z,0.20
2018-11-28T03:47:48.002Z,0.20
2018-11-28T03:50:17.741Z,0.20
2018-11-28T03:52:47.600Z,0.20
2018-11-28T03:55:17.504Z,0.20
2018-11-28T03:57:47.822Z,0.20
2018-11-28T04:00:20.397Z,0.20
2018-11-28T04:02:51.147Z,0.20
2018-11-28T04:05:21.207Z,0.20
2018-11-28T04:07:50.897Z,0.20
2018-11-28T04:10:20.790Z,0.20
2018-11-28T04:12:50.300Z,0.20
2018-11-28T04:15:21.444Z,0.20
2018-11-28T04:17:51.450Z,0.20
2018-11-28T04:20:21.953Z,0.20
2018-11-28T04:25:22.314Z,0.20
2018-11-28T04:27:52.342Z,0.20
2018-11-28T04:32:53.813Z,0.20
2018-11-28T04:35:23.477Z,0.20
2018-11-28T04:37:53.017Z,0.20
2018-11-28T04:40:23.040Z,0.20
2018-11-28T04:42:52.756Z,0.20
2018-11-28T04:45:24.430Z,0.10
2018-11-28T04:47:54.961Z,0.10
2018-11-28T04:50:24.872Z,0.10
2018-11-28T04:52:54.674Z,0.10
2018-11-28T04:57:54.180Z,0.10
2018-11-28T05:00:26.618Z,0.10
2018-11-28T05:02:57.363Z,0.00
2018-11-28T05:05:27.017Z,0.00
2018-11-28T05:07:56.646Z,0.00
2018-11-28T05:10:29.156Z,0.00
2018-11-28T05:12:59.430Z,0.00
2018-11-28T05:15:30.926Z,0.00
2018-11-28T05:18:00.542Z,0.00
2018-11-28T05:20:34.147Z,-0.10
2018-11-28T05:25:34.848Z,-0.10
2018-11-28T05:28:04.579Z,-0.10
2018-11-28T05:33:03.176Z,-0.10
2018-11-28T05:35:34.775Z,-0.10
2018-11-28T05:38:08.007Z,-0.20
2018-11-28T05:40:38.014Z,-0.20
2018-11-28T05:43:07.820Z,-0.20
2018-11-28T05:45:37.510Z,-0.20
2018-11-28T05:50:35.725Z,-0.20
2018-11-28T05:53:05.367Z,-0.20
2018-11-28T05:55:35.334Z,-0.20
2018-11-28T05:58:05.926Z,-0.20
2018-11-28T06:00:40.465Z,-0.20
2018-11-28T06:03:11.559Z,-0.10
2018-11-28T06:05:41.854Z,-0.10
2018-11-28T06:08:11.509Z,-0.10
2018-11-28T06:10:41.281Z,-0.10
2018-11-28T06:13:11.043Z,0.00
2018-11-28T06:15:40.536Z,0.00
2018-11-28T06:18:10.325Z,0.00
2018-11-28T06:20:40.093Z,0.00
2018-11-28T06:23:10.066Z,0.00
2018-11-28T06:25:39.592Z,0.00
2018-11-28T06:28:09.381Z,0.00
2018-11-28T06:30:39.116Z,0.00
2018-11-28T06:33:08.724Z,0.10
2018-11-28T06:35:39.028Z,0.10
2018-11-28T06:38:08.833Z,0.20
2018-11-28T06:40:38.573Z,0.30
2018-11-28T06:43:08.278Z,0.30
2018-11-28T06:45:37.902Z,0.40
2018-11-28T06:48:07.696Z,0.50
2018-11-28T06:50:37.415Z,0.50
2018-11-28T06:53:07.089Z,0.60
2018-11-28T06:55:36.610Z,0.60
2018-11-28T06:58:06.439Z,0.70
2018-11-28T07:03:03.290Z,0.80
2018-11-28T07:08:01.090Z,1.20
2018-11-28T07:10:30.769Z,1.90
2018-11-28T07:13:00.605Z,2.10
2018-11-28T07:15:30.613Z,2.40
2018-11-28T07:19:10.582Z,2.70
2018-11-28T07:21:40.382Z,3.10
2018-11-28T07:24:10.053Z,4.10
2018-11-28T07:26:39.850Z,4.90
2018-11-28T07:29:09.422Z,6.20
2018-11-28T07:31:39.132Z,7.20
2018-11-28T07:34:11.922Z,8.00
2018-11-28T07:36:41.499Z,8.70
2018-11-28T07:39:11.532Z,9.80
2018-11-28T07:41:41.124Z,10.40
2018-11-28T07:44:10.953Z,10.50
2018-11-28T07:46:40.663Z,11.00
2018-11-28T07:49:10.550Z,11.30
2018-11-28T07:51:40.406Z,11.90
2018-11-28T07:54:10.223Z,13.00
2018-11-28T07:56:40.017Z,14.10
2018-11-28T07:59:09.687Z,15.20
2018-11-28T08:01:39.367Z,15.80
2018-11-28T08:04:09.561Z,15.80
2018-11-28T08:06:39.573Z,15.50
2018-11-28T08:09:09.177Z,15.30
2018-11-28T08:11:39.086Z,15.10
2018-11-28T08:14:09.125Z,14.60
2018-11-28T08:16:38.893Z,14.60
2018-11-28T08:19:14.690Z,15.30
2018-11-28T08:21:44.014Z,15.80
2018-11-28T08:24:14.065Z,16.60
2018-11-28T08:26:43.590Z,17.00
2018-11-28T08:29:12.944Z,17.60
2018-11-28T08:31:42.828Z,18.80
2018-11-28T08:34:12.512Z,19.90
2018-11-28T08:36:42.155Z,20.30
2018-11-28T08:39:11.835Z,20.50
2018-11-28T08:41:41.663Z,20.40
2018-11-28T08:44:11.284Z,20.10
2018-11-28T08:46:40.850Z,20.00
2018-11-28T08:49:10.660Z,20.30
2018-11-28T08:51:40.360Z,21.20
2018-11-28T08:54:09.988Z,22.30
2018-11-28T08:56:39.814Z,23.70
2018-11-28T08:59:09.767Z,24.50
2018-11-28T09:01:39.395Z,25.30
2018-11-28T09:04:09.130Z,26.50
2018-11-28T09:06:38.649Z,27.30
2018-11-28T09:09:09.025Z,28.30
2018-11-28T09:11:38.922Z,28.90
2018-11-28T09:14:09.246Z,29.30
2018-11-28T09:16:38.843Z,29.50
2018-11-28T09:19:08.523Z,29.30
2018-11-28T09:21:38.377Z,29.50
2018-11-28T09:24:07.660Z,29.80
2018-11-28T09:26:36.951Z,29.80
2018-11-28T09:29:06.352Z,30.00
2018-11-28T09:31:35.713Z,30.80
2018-11-28T09:34:05.045Z,31.20
2018-11-28T09:36:34.339Z,30.80
2018-11-28T09:39:05.098Z,30.10
2018-11-28T09:41:34.425Z,30.20
2018-11-28T09:44:03.732Z,31.00
2018-11-28T09:46:33.073Z,32.00
2018-11-28T09:49:02.405Z,33.20
2018-11-28T09:51:31.683Z,33.70
2018-11-28T09:54:04.551Z,33.60
2018-11-28T09:56:34.140Z,33.10
2018-11-28T09:59:03.495Z,33.10
2018-11-28T10:01:32.930Z,33.60
2018-11-28T10:04:02.285Z,34.20
2018-11-28T10:06:31.590Z,34.70
2018-11-28T10:09:00.891Z,34.40
2018-11-28T10:11:30.264Z,32.30
2018-11-28T10:13:59.612Z,30.20
2018-11-28T10:16:28.920Z,28.90
2018-11-28T10:18:58.208Z,29.40
2018-11-28T10:21:27.579Z,30.90
2018-11-28T10:23:56.941Z,32.40
2018-11-28T10:26:26.350Z,33.60
2018-11-28T10:28:55.648Z,34.10
2018-11-28T10:31:25.022Z,34.50
2018-11-28T10:33:54.315Z,35.10
2018-11-28T10:36:23.763Z,35.50
2018-11-28T10:38:53.517Z,36.10
2018-11-28T10:41:23.216Z,36.10
2018-11-28T10:43:52.998Z,35.80
2018-11-28T10:46:23.250Z,36.10
2018-11-28T10:48:52.904Z,36.60
2018-11-28T10:51:23.135Z,36.90
2018-11-28T10:54:04.617Z,36.80
2018-11-28T10:56:34.810Z,36.40
2018-11-28T10:59:04.181Z,36.20
2018-11-28T11:01:37.692Z,36.20
2018-11-28T11:04:12.390Z,36.30
2018-11-28T11:06:47.170Z,35.50
2018-11-28T11:09:21.947Z,35.10
2018-11-28T11:11:56.663Z,35.10
2018-11-28T11:14:31.640Z,35.00
2018-11-28T11:17:01.513Z,34.40
2018-11-28T11:19:31.111Z,33.60
2018-11-28T11:22:01.046Z,33.30
2018-11-28T11:24:31.092Z,33.30
2018-11-28T11:27:00.756Z,32.80
2018-11-28T11:29:30.219Z,32.70
2018-11-28T11:32:00.074Z,32.90
2018-11-28T11:34:29.826Z,32.90
2018-11-28T11:36:59.204Z,32.60
2018-11-28T11:39:28.573Z,32.70
2018-11-28T11:41:57.851Z,32.50
2018-11-28T11:44:27.279Z,31.50
2018-11-28T11:46:56.671Z,30.40
2018-11-28T11:49:26.516Z,30.20
2018-11-28T11:51:56.221Z,30.40
2018-11-28T11:54:25.773Z,30.50
2018-11-28T11:56:55.572Z,31.10
2018-11-28T11:59:25.538Z,31.50
2018-11-28T12:01:55.297Z,31.40
2018-11-28T12:04:25.072Z,31.70
2018-11-28T12:06:54.777Z,31.70
2018-11-28T12:09:24.577Z,31.10
2018-11-28T12:11:54.675Z,30.60
2018-11-28T12:14:24.579Z,30.40
2018-11-28T12:16:54.712Z,30.20
2018-11-28T12:19:25.321Z,29.50
2018-11-28T12:21:55.175Z,29.90
2018-11-28T12:24:25.268Z,29.10
2018-11-28T12:26:54.828Z,28.80
2018-11-28T12:29:24.283Z,28.40
2018-11-28T12:32:07.291Z,27.30
2018-11-28T12:34:37.450Z,25.50
2018-11-28T12:37:18.262Z,24.00
2018-11-28T12:39:51.153Z,23.10
2018-11-28T12:42:21.405Z,23.20
2018-11-28T12:44:51.187Z,23.10
2018-11-28T12:47:20.949Z,22.40
2018-11-28T12:49:50.819Z,22.60
2018-11-28T12:52:20.836Z,22.00
2018-11-28T12:54:50.907Z,21.80
2018-11-28T12:57:21.044Z,21.30
2018-11-28T12:59:50.627Z,19.70
2018-11-28T13:02:20.339Z,19.20
2018-11-28T13:04:49.974Z,19.30
2018-11-28T13:07:19.819Z,19.10
2018-11-28T13:09:49.541Z,18.40
2018-11-28T13:12:19.527Z,17.70
2018-11-28T13:14:49.354Z,16.80
2018-11-28T13:17:19.474Z,15.80
2018-11-28T13:19:49.056Z,15.00
2018-11-28T13:22:18.608Z,14.30
2018-11-28T13:24:48.170Z,13.60
2018-11-28T13:27:17.781Z,13.00
2018-11-28T13:29:47.411Z,12.40
2018-11-28T13:32:17.240Z,12.00
2018-11-28T13:34:47.349Z,11.70
2018-11-28T13:37:18.859Z,11.60
2018-11-28T13:57:50.796Z,9.60
2018-11-28T14:00:20.896Z,9.50
2018-11-28T14:02:50.721Z,9.40
2018-11-28T14:05:20.306Z,9.30
2018-11-28T14:07:50.101Z,9.20
2018-11-28T14:10:19.952Z,9.10
2018-11-28T14:12:49.682Z,8.90
2018-11-28T14:15:22.732Z,8.90
2018-11-28T14:17:55.601Z,8.80
2018-11-28T14:20:27.612Z,8.60
2018-11-28T14:22:57.320Z,8.50
2018-11-28T14:25:27.190Z,8.40
2018-11-28T14:27:57.302Z,8.30
2018-11-28T14:30:27.179Z,8.20
2018-11-28T14:33:01.584Z,8.10
2018-11-28T14:35:36.964Z,8.00
2018-11-28T14:38:07.412Z,7.90
2018-11-28T14:40:37.130Z,7.90
2018-11-28T14:43:08.098Z,7.70
2018-11-28T14:45:37.987Z,7.60
2018-11-28T14:48:07.700Z,7.60
2018-11-28T14:50:37.533Z,7.50
2018-11-28T14:53:07.256Z,7.40
2018-11-28T14:55:39.675Z,7.30
2018-11-28T14:58:11.556Z,7.20
2018-11-28T15:00:41.625Z,7.10
2018-11-28T15:03:16.321Z,6.90
2018-11-28T15:06:09.608Z,6.70
2018-11-28T15:08:39.824Z,6.60
2018-11-28T15:11:12.056Z,6.40
2018-11-28T15:13:45.218Z,6.30
2018-11-28T15:16:16.943Z,6.30
2018-11-28T15:18:46.602Z,6.20
2018-11-28T15:21:16.438Z,6.10
2018-11-28T15:23:46.071Z,6.00
2018-11-28T15:26:15.892Z,6.00
2018-11-28T15:28:45.213Z,5.90
2018-11-28T15:31:16.448Z,5.90
2018-11-28T15:33:48.094Z,5.90
2018-11-28T15:36:20.087Z,5.90
2018-11-28T15:38:49.869Z,5.80
2018-11-28T15:41:20.845Z,5.80
2018-11-28T15:43:57.366Z,5.70
2018-11-28T15:46:27.364Z,5.70
2018-11-28T15:48:58.445Z,5.60
2018-11-28T15:51:29.741Z,5.40
2018-11-28T15:53:59.797Z,5.30
2018-11-28T15:56:30.101Z,5.20
2018-11-28T15:59:03.771Z,5.10
2018-11-28T16:01:33.781Z,5.00
2018-11-28T16:04:06.581Z,4.80
2018-11-28T16:06:36.315Z,4.80
2018-11-28T16:27:30.886Z,4.50
2018-11-28T16:30:01.169Z,4.50
2018-11-28T16:32:30.968Z,4.40
2018-11-28T16:35:00.590Z,4.40
2018-11-28T16:37:30.234Z,4.30
2018-11-28T16:39:59.980Z,4.30
2018-11-28T16:42:29.636Z,4.20
2018-11-28T16:44:59.420Z,4.10
2018-11-28T16:47:28.964Z,4.10
2018-11-28T16:49:58.846Z,4.00
2018-11-28T16:52:28.484Z,3.90
2018-11-28T16:54:58.329Z,3.80
2018-11-28T16:57:27.793Z,3.80
2018-11-28T16:59:57.631Z,3.80
2018-11-28T17:02:27.500Z,3.70
2018-11-28T17:04:57.127Z,3.70
2018-11-28T17:07:27.123Z,3.60
2018-11-28T17:09:57.028Z,3.50
2018-11-28T17:12:26.430Z,3.50
2018-11-28T17:14:56.044Z,3.50
2018-11-28T17:17:25.817Z,3.40
2018-11-28T17:19:55.555Z,3.40
2018-11-28T17:22:25.520Z,3.30
2018-11-28T17:24:55.397Z,3.20
2018-11-28T17:27:24.975Z,3.10
2018-11-28T17:29:54.684Z,3.10
2018-11-28T17:32:24.326Z,3.10
2018-11-28T17:34:54.089Z,3.00
2018-11-28T17:37:23.804Z,3.00
2018-11-28T17:39:53.436Z,2.90
2018-11-28T17:42:22.987Z,2.90
2018-11-28T17:44:52.795Z,2.90
2018-11-28T17:47:22.510Z,2.90
2018-11-28T17:49:52.004Z,2.80
2018-11-28T17:52:21.834Z,2.80
2018-11-28T17:54:51.613Z,2.70
2018-11-28T17:57:21.351Z,2.70
2018-11-28T17:59:51.191Z,2.60
2018-11-28T18:02:20.737Z,2.50
2018-11-28T18:04:50.468Z,2.60
2018-11-28T18:07:20.178Z,2.70
2018-11-28T18:09:49.872Z,2.70
2018-11-28T18:12:19.534Z,2.60
2018-11-28T18:14:49.089Z,2.60
2018-11-28T18:17:18.826Z,2.60
2018-11-28T18:19:48.596Z,2.60
2018-11-28T18:22:18.133Z,2.50
2018-11-28T18:24:47.913Z,2.50
2018-11-28T18:27:17.666Z,2.40
2018-11-28T18:29:48.412Z,2.40
2018-11-28T18:32:18.199Z,2.40
2018-11-28T18:34:48.024Z,2.40
2018-11-28T18:37:17.501Z,2.40
2018-11-28T18:39:47.271Z,2.30
2018-11-28T18:42:17.854Z,2.30
2018-11-28T18:44:47.388Z,2.20
2018-11-28T18:47:17.175Z,2.20
2018-11-28T18:49:47.025Z,2.20
2018-11-28T18:52:16.950Z,2.10
2018-11-28T18:54:46.797Z,2.10
2018-11-28T18:57:16.644Z,2.00
2018-11-28T18:59:46.336Z,2.00
2018-11-28T19:04:46.562Z,2.00
2018-11-28T19:09:49.823Z,1.90
2018-11-28T19:12:19.722Z,1.90
2018-11-28T19:14:49.755Z,1.80
2018-11-28T19:17:19.787Z,1.80
2018-11-28T19:19:49.508Z,1.70
2018-11-28T19:22:19.784Z,1.70
2018-11-28T19:24:49.417Z,1.70
2018-11-28T19:29:49.442Z,1.60
2018-11-28T19:32:19.383Z,1.60
2018-11-28T19:34:49.025Z,1.60
2018-11-28T19:37:18.718Z,1.50
2018-11-28T19:39:48.406Z,1.50
2018-11-28T19:44:48.816Z,1.50
2018-11-28T19:47:18.346Z,1.40
2018-11-28T19:52:15.245Z,1.40
2018-11-28T19:57:12.857Z,1.40
2018-11-28T19:59:42.162Z,1.30
2018-11-28T20:02:11.643Z,1.20
2018-11-28T20:04:41.042Z,1.20
2018-11-28T20:07:10.702Z,1.20
2018-11-28T20:09:40.501Z,1.20
2018-11-28T20:12:10.223Z,1.10
2018-11-28T20:14:39.777Z,1.10
2018-11-28T20:17:09.517Z,1.10
2018-11-28T20:19:39.262Z,1.10
2018-11-28T20:22:09.103Z,1.10
2018-11-28T20:24:45.506Z,1.10
2018-11-28T20:27:15.338Z,1.00
2018-11-28T20:29:45.039Z,1.00
2018-11-28T20:32:14.595Z,1.00
2018-11-28T20:34:44.352Z,1.00
2018-11-28T20:37:14.377Z,1.00
2018-11-28T20:39:44.320Z,1.00
2018-11-28T20:42:14.174Z,0.90
2018-11-28T20:44:43.839Z,0.90
2018-11-28T20:47:13.409Z,0.90
2018-11-28T20:49:43.559Z,0.90
2018-11-28T20:52:13.326Z,0.90
2018-11-28T20:54:43.258Z,0.90
2018-11-28T20:57:17.339Z,0.90
2018-11-28T20:59:42.904Z,0.80
2018-11-28T21:02:12.832Z,0.80
2018-11-28T21:04:42.512Z,0.80
2018-11-28T21:07:12.100Z,0.70
2018-11-28T21:09:47.057Z,0.70
2018-11-28T21:12:16.855Z,0.70
2018-11-28T21:14:46.799Z,0.70
2018-11-28T21:17:17.455Z,0.70
2018-11-28T21:19:46.769Z,0.60
2018-11-28T21:22:16.467Z,0.60
2018-11-28T21:24:46.239Z,0.50
2018-11-28T21:27:15.954Z,0.60
2018-11-28T21:29:45.921Z,0.60
2018-11-28T21:32:15.730Z,0.50
2018-11-28T21:34:45.594Z,0.50
2018-11-28T21:37:15.560Z,0.50
2018-11-28T21:39:54.931Z,0.50
2018-11-28T21:42:33.021Z,0.40
2018-11-28T21:45:05.459Z,0.40
2018-11-28T21:47:35.280Z,0.40
2018-11-28T21:50:05.342Z,0.30
2018-11-28T21:52:34.968Z,0.40
2018-11-28T21:55:04.819Z,0.30
2018-11-28T21:57:34.483Z,0.30
2018-11-28T22:00:05.176Z,0.30
2018-11-28T22:02:34.756Z,0.30
2018-11-28T22:05:04.272Z,0.20
2018-11-28T22:07:34.288Z,0.30
2018-11-28T22:10:04.441Z,0.20
2018-11-28T22:12:34.080Z,0.20
2018-11-28T22:15:03.600Z,0.20
2018-11-28T22:17:34.138Z,0.20
2018-11-28T22:20:03.145Z,0.20
2018-11-28T22:22:32.980Z,0.10
2018-11-28T22:25:02.618Z,0.10
2018-11-28T22:27:33.090Z,0.10
2018-11-28T22:30:02.604Z,0.10
2018-11-28T22:32:32.623Z,0.10
2018-11-28T22:35:02.248Z,0.10
2018-11-28T22:40:00.065Z,0.10
2018-11-28T22:44:58.734Z,0.00
2018-11-28T22:47:28.713Z,-0.10
2018-11-28T22:49:58.412Z,-0.10
2018-11-28T22:52:33.827Z,-0.10
2018-11-28T22:55:03.603Z,-0.10
2018-11-28T22:57:33.245Z,-0.10
2018-11-28T23:00:02.806Z,-0.20
2018-11-28T23:02:54.348Z,-0.20
2018-11-28T23:07:55.059Z,-0.20
2018-11-28T23:12:53.556Z,-0.20
2018-11-28T23:15:23.469Z,-0.30
2018-11-28T23:17:55.260Z,-0.30
2018-11-28T23:20:23.302Z,-0.30
2018-11-28T23:22:53.022Z,-0.40
2018-11-28T23:25:23.061Z,-0.40
2018-11-28T23:27:52.887Z,-0.40
2018-11-28T23:30:23.036Z,-0.40
2018-11-28T23:32:54.232Z,-0.40
2018-11-28T23:35:24.461Z,-0.40
2018-11-28T23:37:54.072Z,-0.50
2018-11-28T23:42:51.698Z,-0.50
2018-11-28T23:47:51.271Z,-0.50
2018-11-28T23:52:49.019Z,-0.60
2018-11-28T23:55:20.551Z,-0.60
2018-11-28T23:57:50.235Z,-0.60
